createdAt,value
2018-12-26T00:01:45.977Z,15.90
2018-12-26T00:04:26.422Z,15.90
2018-12-26T00:07:07.055Z,15.90
2018-12-26T00:09:47.814Z,15.90
2018-12-26T00:12:28.319Z,15.90
2018-12-26T00:15:08.932Z,15.90
2018-12-26T00:17:49.953Z,15.80
2018-12-26T00:20:30.891Z,15.80
2018-12-26T00:29:23.105Z,16.00
2018-12-26T00:32:03.959Z,15.80
2018-12-26T00:34:44.583Z,15.80
2018-12-26T00:37:25.760Z,15.80
2018-12-26T00:40:06.799Z,15.70
2018-12-26T00:42:47.016Z,15.70
2018-12-26T00:45:28.159Z,15.70
2018-12-26T00:48:08.884Z,15.70
2018-12-26T00:50:49.958Z,15.60
2018-12-26T00:53:31.051Z,15.60
2018-12-26T00:56:12.125Z,15.60
2018-12-26T00:58:53.040Z,15.60
2018-12-26T01:01:33.728Z,15.50
2018-12-26T01:04:14.823Z,15.50
2018-12-26T01:06:55.471Z,15.50
2018-12-26T01:09:36.444Z,15.50
2018-12-26T01:12:17.459Z,15.50
2018-12-26T01:14:58.028Z,15.50
2018-12-26T01:17:38.736Z,15.40
2018-12-26T01:20:19.590Z,15.40
2018-12-26T01:23:00.667Z,15.40
2018-12-26T01:25:41.091Z,15.40
2018-12-26T01:28:22.234Z,15.40
2018-12-26T01:31:02.879Z,15.40
2018-12-26T01:33:43.530Z,15.30
2018-12-26T01:36:24.251Z,15.30
2018-12-26T01:39:04.988Z,15.30
2018-12-26T01:41:43.756Z,15.30
2018-12-26T01:44:31.548Z,15.30
2018-12-26T01:47:11.963Z,15.20
2018-12-26T01:49:53.048Z,15.20
2018-12-26T01:52:34.048Z,15.20
2018-12-26T01:55:15.039Z,15.20
2018-12-26T01:57:55.899Z,15.20
2018-12-26T02:00:36.878Z,15.10
2018-12-26T02:03:17.625Z,15.10
2018-12-26T02:05:58.772Z,15.10
2018-12-26T02:08:40.015Z,15.10
2018-12-26T02:11:21.031Z,15.10
2018-12-26T02:14:02.059Z,15.10
2018-12-26T02:16:43.004Z,15.00
2018-12-26T02:19:23.689Z,15.00
2018-12-26T02:22:04.538Z,15.00
2018-12-26T02:24:45.403Z,15.00
2018-12-26T02:27:25.864Z,15.00
2018-12-26T02:30:06.915Z,14.90
2018-12-26T02:32:45.647Z,14.90
2018-12-26T02:35:33.431Z,14.90
2018-12-26T02:38:14.423Z,14.90
2018-12-26T02:40:54.752Z,14.90
2018-12-26T02:43:35.637Z,14.90
2018-12-26T02:46:16.857Z,14.80
2018-12-26T02:48:57.772Z,14.80
2018-12-26T02:51:38.907Z,14.80
2018-12-26T02:54:19.712Z,14.80
2018-12-26T02:57:00.019Z,14.80
2018-12-26T02:59:41.025Z,14.80
2018-12-26T03:02:21.780Z,14.70
2018-12-26T03:05:02.577Z,14.70
2018-12-26T03:07:43.645Z,14.70
2018-12-26T03:10:24.586Z,14.70
2018-12-26T03:13:04.889Z,14.70
2018-12-26T03:15:45.651Z,14.70
2018-12-26T03:18:26.432Z,14.60
2018-12-26T03:21:07.207Z,14.60
2018-12-26T03:23:48.055Z,14.60
2018-12-26T03:26:29.040Z,14.60
2018-12-26T03:29:10.259Z,14.60
2018-12-26T03:31:51.301Z,14.60
2018-12-26T03:34:31.947Z,14.60
2018-12-26T03:37:12.809Z,14.60
2018-12-26T03:39:53.944Z,14.50
2018-12-26T03:42:34.864Z,14.50
2018-12-26T03:45:16.075Z,14.50
2018-12-26T03:47:57.042Z,14.50
2018-12-26T03:50:38.089Z,14.50
2018-12-26T03:53:19.096Z,14.50
2018-12-26T04:02:10.475Z,14.60
2018-12-26T04:04:51.498Z,14.50
2018-12-26T04:07:32.445Z,14.50
2018-12-26T04:10:13.151Z,14.50
2018-12-26T04:12:54.017Z,14.40
2018-12-26T04:15:35.012Z,14.40
2018-12-26T04:18:15.737Z,14.40
2018-12-26T04:20:56.874Z,14.40
2018-12-26T04:23:37.975Z,14.40
2018-12-26T04:26:19.032Z,14.40
2018-12-26T04:28:59.827Z,14.40
2018-12-26T04:31:40.498Z,14.30
2018-12-26T04:34:21.681Z,14.30
2018-12-26T04:37:02.563Z,14.30
2018-12-26T04:39:43.440Z,14.30
2018-12-26T04:42:24.503Z,14.30
2018-12-26T04:45:05.242Z,14.30
2018-12-26T04:47:45.889Z,14.30
2018-12-26T04:50:26.575Z,14.30
2018-12-26T04:53:07.688Z,14.30
2018-12-26T04:55:48.583Z,14.30
2018-12-26T04:58:29.040Z,14.20
2018-12-26T05:01:09.850Z,14.20
2018-12-26T05:03:50.851Z,14.20
2018-12-26T05:06:31.311Z,14.20
2018-12-26T05:09:12.011Z,14.20
2018-12-26T05:11:52.947Z,14.20
2018-12-26T05:14:33.995Z,14.20
2018-12-26T05:17:14.784Z,14.20
2018-12-26T05:19:55.523Z,14.10
2018-12-26T05:22:36.299Z,14.10
2018-12-26T05:25:17.018Z,14.10
2018-12-26T05:27:57.888Z,14.10
2018-12-26T05:30:38.788Z,14.10
2018-12-26T05:33:19.958Z,14.10
2018-12-26T05:36:00.906Z,14.10
2018-12-26T05:38:42.262Z,14.10
2018-12-26T05:41:22.571Z,14.00
2018-12-26T05:44:03.359Z,14.00
2018-12-26T05:46:44.375Z,14.00
2018-12-26T05:49:25.399Z,14.00
2018-12-26T05:52:06.492Z,14.00
2018-12-26T05:54:47.182Z,14.00
2018-12-26T05:57:28.011Z,13.90
2018-12-26T06:00:08.924Z,13.90
2018-12-26T06:02:49.643Z,13.90
2018-12-26T06:05:30.797Z,13.90
2018-12-26T06:08:11.663Z,13.90
2018-12-26T06:10:52.782Z,13.90
2018-12-26T06:13:33.515Z,13.90
2018-12-26T06:16:14.219Z,13.90
2018-12-26T06:18:55.732Z,13.90
2018-12-26T06:21:36.600Z,13.80
2018-12-26T06:24:17.754Z,13.80
2018-12-26T06:26:58.756Z,13.80
2018-12-26T06:29:39.249Z,13.80
2018-12-26T06:32:20.111Z,13.80
2018-12-26T06:44:11.633Z,13.80
2018-12-26T06:46:52.136Z,13.70
2018-12-26T06:49:33.230Z,13.70
2018-12-26T06:52:14.619Z,13.70
2018-12-26T06:54:55.732Z,13.70
2018-12-26T06:57:36.119Z,13.60
2018-12-26T07:00:17.015Z,13.60
2018-12-26T07:02:57.876Z,13.60
2018-12-26T07:05:39.191Z,13.60
2018-12-26T07:08:20.294Z,13.60
2018-12-26T07:11:01.295Z,13.60
2018-12-26T07:13:40.255Z,13.60
2018-12-26T07:22:13.226Z,13.70
2018-12-26T07:24:54.348Z,13.60
2018-12-26T07:27:35.488Z,13.60
2018-12-26T07:30:17.012Z,13.60
2018-12-26T07:32:57.960Z,13.50
2018-12-26T07:35:38.622Z,13.50
2018-12-26T07:38:18.983Z,13.50
2018-12-26T07:40:59.503Z,13.50
2018-12-26T07:43:40.045Z,13.50
2018-12-26T07:46:20.738Z,13.50
2018-12-26T07:52:03.467Z,13.50
2018-12-26T07:54:44.292Z,13.50
2018-12-26T07:57:25.371Z,13.50
2018-12-26T08:00:05.359Z,13.40
2018-12-26T08:05:41.043Z,13.40
2018-12-26T08:11:20.439Z,13.40
2018-12-26T08:14:01.267Z,13.40
2018-12-26T08:16:42.211Z,13.40
2018-12-26T08:19:23.137Z,13.50
2018-12-26T08:22:03.817Z,13.60
2018-12-26T08:24:44.862Z,13.80
2018-12-26T08:27:25.476Z,13.90
2018-12-26T08:30:06.323Z,14.20
2018-12-26T08:32:46.887Z,14.40
2018-12-26T08:35:27.531Z,14.70
2018-12-26T08:38:08.363Z,14.90
2018-12-26T08:40:49.511Z,15.10
2018-12-26T08:43:30.559Z,15.40
2018-12-26T08:46:10.823Z,15.60
2018-12-26T08:48:51.720Z,15.80
2018-12-26T08:51:32.871Z,16.00
2018-12-26T08:54:13.923Z,16.10
2018-12-26T08:59:53.241Z,16.50
2018-12-26T09:02:34.343Z,16.70
2018-12-26T09:05:15.403Z,16.60
2018-12-26T09:07:56.183Z,16.70
2018-12-26T09:10:37.180Z,16.70
2018-12-26T09:13:18.098Z,16.70
2018-12-26T09:15:59.087Z,16.90
2018-12-26T09:18:39.915Z,17.10
2018-12-26T09:21:18.531Z,17.40
2018-12-26T09:24:06.318Z,17.70
2018-12-26T09:26:47.467Z,17.90
2018-12-26T09:29:28.363Z,18.10
2018-12-26T09:32:09.366Z,18.30
2018-12-26T09:34:50.088Z,18.40
2018-12-26T09:37:30.903Z,18.50
2018-12-26T09:40:11.919Z,18.50
2018-12-26T09:42:52.997Z,18.60
2018-12-26T09:45:33.987Z,18.60
2018-12-26T09:48:15.051Z,18.70
2018-12-26T09:50:56.071Z,18.70
2018-12-26T09:53:36.827Z,18.70
2018-12-26T09:56:17.907Z,18.80
2018-12-26T09:58:59.291Z,18.80
2018-12-26T10:01:40.115Z,18.90
2018-12-26T10:04:21.202Z,19.00
2018-12-26T10:07:02.063Z,19.00
2018-12-26T10:09:41.257Z,19.10
2018-12-26T10:12:22.207Z,19.10
2018-12-26T10:15:03.397Z,19.20
2018-12-26T10:17:44.643Z,19.20
2018-12-26T10:20:25.595Z,19.30
2018-12-26T10:23:06.470Z,19.40
2018-12-26T10:25:47.295Z,19.10
2018-12-26T10:28:27.941Z,18.90
2018-12-26T10:31:09.476Z,19.00
2018-12-26T10:33:50.100Z,19.10
2018-12-26T10:36:31.115Z,19.00
2018-12-26T10:39:11.979Z,18.70
2018-12-26T10:41:52.859Z,18.50
2018-12-26T10:44:33.708Z,18.60
2018-12-26T10:47:14.775Z,18.70
2018-12-26T10:49:55.810Z,18.70
2018-12-26T10:52:36.139Z,18.70
2018-12-26T10:55:17.312Z,18.70
2018-12-26T10:57:58.141Z,18.70
2018-12-26T11:00:39.399Z,18.70
2018-12-26T11:03:20.559Z,18.70
2018-12-26T11:06:01.267Z,18.70
2018-12-26T11:08:42.235Z,18.70
2018-12-26T11:11:23.355Z,18.70
2018-12-26T11:14:04.407Z,18.70
2018-12-26T11:16:44.978Z,18.70
2018-12-26T11:19:26.116Z,18.70
2018-12-26T11:22:06.974Z,18.70
2018-12-26T11:24:47.845Z,18.70
2018-12-26T11:27:28.543Z,18.70
2018-12-26T11:30:09.435Z,18.70
2018-12-26T11:32:50.437Z,18.70
2018-12-26T11:35:31.152Z,18.70
2018-12-26T11:38:12.226Z,18.70
2018-12-26T11:40:53.448Z,18.60
2018-12-26T11:43:32.157Z,18.50
2018-12-26T11:46:12.893Z,18.50
2018-12-26T11:48:53.899Z,18.30
2018-12-26T11:51:35.007Z,18.20
2018-12-26T11:54:16.127Z,18.20
2018-12-26T11:56:56.938Z,18.30
2018-12-26T11:59:37.706Z,18.30
2018-12-26T12:02:20.673Z,18.30
2018-12-26T12:05:00.567Z,18.40
2018-12-26T12:07:41.315Z,18.40
2018-12-26T12:10:22.255Z,18.40
2018-12-26T12:13:02.955Z,18.40
2018-12-26T12:15:41.598Z,18.40
2018-12-26T12:18:21.949Z,18.50
2018-12-26T12:21:02.748Z,18.50
2018-12-26T12:23:43.728Z,18.50
2018-12-26T12:26:24.575Z,18.50
2018-12-26T12:29:05.791Z,18.50
2018-12-26T12:31:46.429Z,18.50
2018-12-26T12:34:28.280Z,18.50
2018-12-26T12:37:09.384Z,18.50
2018-12-26T12:39:49.959Z,18.50
2018-12-26T12:42:30.570Z,18.50
2018-12-26T12:45:11.577Z,18.50
2018-12-26T12:47:52.339Z,18.50
2018-12-26T12:50:34.875Z,18.50
2018-12-26T12:53:15.455Z,18.50
2018-12-26T12:55:55.791Z,18.50
2018-12-26T12:58:36.915Z,18.40
2018-12-26T13:01:18.014Z,18.40
2018-12-26T13:03:59.159Z,18.40
2018-12-26T13:06:39.907Z,18.40
2018-12-26T13:09:20.903Z,18.30
2018-12-26T13:12:03.282Z,18.30
2018-12-26T13:14:42.099Z,18.20
2018-12-26T13:17:22.883Z,18.20
2018-12-26T13:20:03.910Z,18.10
2018-12-26T13:22:44.160Z,18.10
2018-12-26T13:25:25.077Z,18.10
2018-12-26T13:28:05.908Z,18.10
2018-12-26T13:30:46.855Z,18.00
2018-12-26T13:33:28.980Z,18.00
2018-12-26T13:36:08.234Z,17.90
2018-12-26T13:38:55.951Z,17.90
2018-12-26T13:41:37.071Z,17.90
2018-12-26T13:44:18.125Z,17.90
2018-12-26T13:46:59.292Z,17.80
2018-12-26T13:49:40.519Z,17.80
2018-12-26T13:52:21.555Z,17.80
2018-12-26T13:55:02.401Z,17.80
2018-12-26T13:57:41.143Z,17.70
2018-12-26T14:00:21.448Z,17.70
2018-12-26T14:03:02.201Z,17.70
2018-12-26T14:05:42.992Z,17.60
2018-12-26T14:08:24.083Z,17.60
2018-12-26T14:11:05.076Z,17.60
2018-12-26T14:13:43.892Z,17.60
2018-12-26T14:16:31.675Z,17.50
2018-12-26T14:19:13.061Z,17.50
2018-12-26T14:21:54.096Z,17.50
2018-12-26T14:24:35.428Z,17.40
2018-12-26T14:27:16.541Z,17.40
2018-12-26T14:29:57.407Z,17.40
2018-12-26T14:32:38.282Z,17.40
2018-12-26T14:35:18.523Z,17.30
2018-12-26T14:37:59.484Z,17.30
2018-12-26T14:43:40.138Z,17.20
2018-12-26T14:46:20.515Z,17.20
2018-12-26T14:49:01.312Z,17.10
2018-12-26T14:51:42.010Z,17.10
2018-12-26T14:54:23.639Z,17.00
2018-12-26T14:57:04.607Z,16.90
2018-12-26T14:59:45.523Z,16.90
2018-12-26T15:02:26.587Z,16.80
2018-12-26T15:05:07.256Z,16.80
2018-12-26T15:07:48.308Z,16.80
2018-12-26T15:10:29.114Z,16.70
2018-12-26T15:13:09.866Z,16.70
2018-12-26T15:15:50.810Z,16.70
2018-12-26T15:18:34.937Z,16.60
2018-12-26T15:21:17.564Z,16.50
2018-12-26T15:23:57.985Z,16.50
2018-12-26T15:29:34.176Z,16.40
2018-12-26T15:38:11.627Z,16.30
2018-12-26T15:40:54.115Z,16.30
2018-12-26T15:43:35.176Z,16.20
2018-12-26T15:46:16.232Z,16.20
2018-12-26T15:48:57.132Z,16.20
2018-12-26T15:51:37.986Z,16.20
2018-12-26T15:54:18.855Z,16.10
2018-12-26T15:56:59.688Z,15.90
2018-12-26T15:59:41.299Z,15.90
2018-12-26T16:02:22.925Z,15.90
2018-12-26T16:05:03.785Z,15.90
2018-12-26T16:07:44.890Z,15.80
2018-12-26T16:10:25.791Z,15.80
2018-12-26T16:13:06.433Z,15.80
2018-12-26T16:15:48.240Z,15.80
2018-12-26T16:18:29.512Z,15.70
2018-12-26T16:21:10.140Z,15.70
2018-12-26T16:23:50.988Z,15.70
2018-12-26T16:26:32.036Z,15.70
2018-12-26T16:29:13.075Z,15.70
2018-12-26T16:31:53.959Z,15.70
2018-12-26T16:34:34.635Z,15.70
2018-12-26T16:37:15.694Z,15.70
2018-12-26T16:39:56.637Z,15.70
2018-12-26T16:42:38.325Z,15.60
2018-12-26T16:45:19.639Z,15.60
2018-12-26T16:48:00.385Z,15.60
2018-12-26T16:50:42.095Z,15.60
2018-12-26T16:53:22.963Z,15.60
2018-12-26T16:56:03.939Z,15.60
2018-12-26T16:58:45.472Z,15.50
2018-12-26T17:01:26.243Z,15.50
2018-12-26T17:04:06.915Z,15.50
2018-12-26T17:06:48.702Z,15.50
2018-12-26T17:09:29.835Z,15.50
2018-12-26T17:12:10.724Z,15.50
2018-12-26T17:14:51.347Z,15.50
2018-12-26T17:17:31.930Z,15.40
2018-12-26T17:20:12.935Z,15.40
2018-12-26T17:22:53.964Z,15.40
2018-12-26T17:25:34.723Z,15.40
2018-12-26T17:34:12.400Z,15.50
2018-12-26T17:36:53.673Z,15.40
2018-12-26T17:39:34.682Z,15.40
2018-12-26T17:42:15.451Z,15.30
2018-12-26T17:44:56.203Z,15.30
2018-12-26T17:47:37.067Z,15.30
2018-12-26T17:50:38.324Z,15.30
2018-12-26T17:53:18.996Z,15.20
2018-12-26T17:55:59.758Z,15.20
2018-12-26T17:58:40.085Z,15.20
2018-12-26T18:01:20.900Z,15.20
2018-12-26T18:07:13.558Z,15.20
2018-12-26T18:09:54.964Z,15.20
2018-12-26T18:12:35.919Z,15.20
2018-12-26T18:15:16.677Z,15.10
2018-12-26T18:17:57.843Z,15.10
2018-12-26T18:20:39.011Z,15.10
2018-12-26T18:23:19.587Z,15.10
2018-12-26T18:26:00.359Z,15.10
2018-12-26T18:28:41.012Z,15.10
2018-12-26T18:31:22.200Z,15.10
2018-12-26T18:34:03.485Z,15.10
2018-12-26T18:36:44.123Z,15.10
2018-12-26T18:39:24.923Z,15.00
2018-12-26T18:42:05.464Z,15.10
2018-12-26T18:44:45.943Z,15.00
2018-12-26T18:47:26.867Z,15.00
2018-12-26T18:50:07.844Z,15.00
2018-12-26T18:52:48.348Z,15.00
2018-12-26T18:55:29.304Z,15.00
2018-12-26T18:58:10.444Z,15.00
2018-12-26T19:00:51.494Z,15.00
2018-12-26T19:03:32.015Z,14.90
2018-12-26T19:06:13.139Z,14.90
2018-12-26T19:08:54.116Z,14.90
2018-12-26T19:11:34.847Z,14.90
2018-12-26T19:14:16.559Z,14.90
2018-12-26T19:16:57.219Z,14.90
2018-12-26T19:19:38.310Z,14.90
2018-12-26T19:25:17.408Z,14.90
2018-12-26T19:27:58.416Z,14.90
2018-12-26T19:30:39.808Z,14.80
2018-12-26T19:33:20.998Z,14.80
2018-12-26T19:36:02.207Z,14.80
2018-12-26T19:38:43.239Z,14.80
2018-12-26T19:41:24.141Z,14.80
2018-12-26T19:44:05.083Z,14.70
2018-12-26T19:46:46.151Z,14.70
2018-12-26T19:49:27.533Z,14.70
2018-12-26T19:52:08.559Z,14.70
2018-12-26T19:54:49.231Z,14.70
2018-12-26T19:57:30.836Z,14.70
2018-12-26T20:00:11.847Z,14.60
2018-12-26T20:02:52.552Z,14.60
2018-12-26T20:11:30.627Z,14.80
2018-12-26T20:14:11.611Z,14.70
2018-12-26T20:16:50.699Z,14.60
2018-12-26T20:19:38.664Z,14.60
2018-12-26T20:22:19.468Z,14.50
2018-12-26T20:25:00.361Z,14.50
2018-12-26T20:27:41.665Z,14.50
2018-12-26T20:30:22.435Z,14.50
2018-12-26T20:33:03.334Z,14.40
2018-12-26T20:35:43.955Z,14.50
2018-12-26T20:38:24.920Z,14.40
2018-12-26T20:41:05.756Z,14.40
2018-12-26T20:43:46.761Z,14.40
2018-12-26T20:46:27.453Z,14.40
2018-12-26T20:55:19.341Z,14.50
2018-12-26T20:58:00.511Z,14.40
2018-12-26T21:00:41.538Z,14.40
2018-12-26T21:03:22.540Z,14.30
2018-12-26T21:06:03.030Z,14.30
2018-12-26T21:08:43.947Z,14.30
2018-12-26T21:11:24.961Z,14.20
2018-12-26T21:14:05.717Z,14.20
2018-12-26T21:16:54.795Z,14.20
2018-12-26T21:19:29.203Z,14.20
2018-12-26T21:22:09.979Z,14.20
2018-12-26T21:24:50.760Z,14.20
2018-12-26T21:27:31.339Z,14.20
2018-12-26T21:30:12.347Z,14.10
2018-12-26T21:32:53.123Z,14.10
2018-12-26T21:35:33.816Z,14.10
2018-12-26T21:41:26.790Z,14.10
2018-12-26T21:47:06.211Z,14.00
2018-12-26T21:49:47.235Z,14.00
2018-12-26T21:52:28.267Z,14.00
2018-12-26T21:55:09.223Z,14.00
2018-12-26T21:57:50.287Z,14.00
2018-12-26T22:00:30.994Z,13.90
2018-12-26T22:03:12.076Z,13.90
2018-12-26T22:05:53.067Z,13.90
2018-12-26T22:08:34.223Z,13.90
2018-12-26T22:11:15.040Z,13.90
2018-12-26T22:13:55.963Z,13.90
2018-12-26T22:16:36.627Z,13.90
2018-12-26T22:19:17.199Z,13.80
2018-12-26T22:21:57.912Z,13.80
2018-12-26T22:24:38.619Z,13.80
2018-12-26T22:27:19.180Z,13.80
2018-12-26T22:29:59.923Z,13.80
2018-12-26T22:32:40.480Z,13.80
2018-12-26T22:35:22.963Z,13.80
2018-12-26T22:38:08.009Z,13.70
2018-12-26T22:40:50.699Z,13.70
2018-12-26T22:43:33.638Z,13.70
2018-12-26T22:46:14.172Z,13.70
2018-12-26T22:48:59.221Z,13.70
2018-12-26T22:51:41.943Z,13.60
2018-12-26T22:54:19.723Z,13.60
2018-12-26T22:57:00.588Z,13.60
2018-12-26T22:59:41.798Z,13.60
2018-12-26T23:02:23.803Z,13.60
2018-12-26T23:05:04.360Z,13.60
2018-12-26T23:07:43.087Z,13.60
2018-12-26T23:10:30.867Z,13.50
2018-12-26T23:13:17.213Z,13.50
2018-12-26T23:16:16.509Z,13.50
2018-12-26T23:18:48.607Z,13.50
2018-12-26T23:21:30.754Z,13.50
2018-12-26T23:24:11.483Z,13.50
2018-12-26T23:26:52.289Z,13.50
2018-12-26T23:29:33.331Z,13.50
2018-12-26T23:32:17.781Z,13.50
2018-12-26T23:34:58.843Z,13.50
2018-12-26T23:37:39.967Z,13.50
2018-12-26T23:40:21.019Z,13.40
2018-12-26T23:43:01.938Z,13.40
2018-12-26T23:45:42.915Z,13.40
2018-12-26T23:48:26.662Z,13.40
2018-12-26T23:51:07.623Z,13.40
2018-12-26T23:53:48.656Z,13.40
2018-12-26T23:56:29.531Z,13.40
2018-12-26T23:59:13.355Z,13.40
